Terminal Aerodrome Forecast
Issued by NWS Atlanta, GA

Home | Current Version | Previous Version | Text Only | Print | Product List | Glossary On
Versions: 1 2 3 4 5 6 7 8 9 10 11 12 13 14 15 16 17 18 19 20 21 22 23 24 25 26 27 28 29 30 31 32 33 34 35
000
FTAK31 PAJN 020500
TAFAHN
TAF
PAHN 020527Z 0206/0306 12005KT P6SM SCT070
     FM020900 10004KT P6SM BKN050 BKN070
     FM021600 09005KT P6SM SCT025 BKN060
     FM021800 12011KT P6SM BKN070 BKN100
     FM030300 12006KT P6SM BKN050 BKN100
      AMD LTD TO CLD VIS AND WIND=

USA.gov is the U.S. government's official web portal to all federal, state and local government web resources and services.